sensor_id;sensor_type;location;lat;lon;timestamp;P1;durP1;ratioP1;P2;durP2;ratioP2
29380;SDS011;16364;52.490;13.326;2022-08-21T00:02:12;5.67;;;5.23;;
29380;SDS011;16364;52.490;13.326;2022-08-21T00:04:37;6.37;;;5.87;;
29380;SDS011;16364;52.490;13.326;2022-08-21T00:07:02;6.90;;;6.37;;
29380;SDS011;16364;52.490;13.326;2022-08-21T00:09:28;6.93;;;6.43;;
29380;SDS011;16364;52.490;13.326;2022-08-21T00:11:53;7.23;;;6.70;;
29380;SDS011;16364;52.490;13.326;2022-08-21T00:14:18;6.27;;;5.87;;
29380;SDS011;16364;52.490;13.326;2022-08-21T00:16:43;7.43;;;6.73;;
29380;SDS011;16364;52.490;13.326;2022-08-21T00:19:08;6.07;;;5.47;;
29380;SDS011;16364;52.490;13.326;2022-08-21T00:21:34;6.73;;;6.20;;
29380;SDS011;16364;52.490;13.326;2022-08-21T00:24:00;6.80;;;6.00;;
29380;SDS011;16364;52.490;13.326;2022-08-21T00:26:25;5.57;;;5.07;;
29380;SDS011;16364;52.490;13.326;2022-08-21T00:28:51;5.53;;;5.00;;
29380;SDS011;16364;52.490;13.326;2022-08-21T00:31:16;6.80;;;6.30;;
29380;SDS011;16364;52.490;13.326;2022-08-21T00:33:41;7.53;;;6.30;;
29380;SDS011;16364;52.490;13.326;2022-08-21T00:36:07;6.90;;;6.30;;
29380;SDS011;16364;52.490;13.326;2022-08-21T00:38:32;8.33;;;7.60;;
29380;SDS011;16364;52.490;13.326;2022-08-21T00:40:59;7.40;;;6.63;;
29380;SDS011;16364;52.490;13.326;2022-08-21T00:43:30;7.97;;;7.17;;
29380;SDS011;16364;52.490;13.326;2022-08-21T00:45:56;7.90;;;7.20;;
29380;SDS011;16364;52.490;13.326;2022-08-21T00:48:21;7.87;;;7.17;;
29380;SDS011;16364;52.490;13.326;2022-08-21T00:50:52;8.73;;;6.67;;
29380;SDS011;16364;52.490;13.326;2022-08-21T00:53:18;8.30;;;7.50;;
29380;SDS011;16364;52.490;13.326;2022-08-21T00:55:43;7.97;;;7.23;;
29380;SDS011;16364;52.490;13.326;2022-08-21T00:58:11;8.20;;;7.37;;
29380;SDS011;16364;52.490;13.326;2022-08-21T01:00:38;12.70;;;9.10;;
29380;SDS011;16364;52.490;13.326;2022-08-21T01:03:09;8.53;;;7.83;;
29380;SDS011;16364;52.490;13.326;2022-08-21T01:05:34;7.60;;;6.93;;
29380;SDS011;16364;52.490;13.326;2022-08-21T01:08:00;8.27;;;7.20;;
29380;SDS011;16364;52.490;13.326;2022-08-21T01:10:25;9.40;;;7.13;;
29380;SDS011;16364;52.490;13.326;2022-08-21T01:12:51;6.90;;;6.30;;
29380;SDS011;16364;52.490;13.326;2022-08-21T01:15:17;9.33;;;7.60;;
29380;SDS011;16364;52.490;13.326;2022-08-21T01:17:44;8.33;;;7.63;;
29380;SDS011;16364;52.490;13.326;2022-08-21T01:20:10;8.13;;;7.43;;
29380;SDS011;16364;52.490;13.326;2022-08-21T01:22:35;8.10;;;7.30;;
29380;SDS011;16364;52.490;13.326;2022-08-21T01:25:02;7.63;;;7.13;;
29380;SDS011;16364;52.490;13.326;2022-08-21T01:27:27;8.13;;;7.33;;
29380;SDS011;16364;52.490;13.326;2022-08-21T01:29:57;8.43;;;7.43;;
29380;SDS011;16364;52.490;13.326;2022-08-21T01:32:23;7.40;;;6.70;;
29380;SDS011;16364;52.490;13.326;2022-08-21T01:34:49;10.33;;;7.33;;
29380;SDS011;16364;52.490;13.326;2022-08-21T01:37:14;6.93;;;6.23;;
29380;SDS011;16364;52.490;13.326;2022-08-21T01:39:40;7.50;;;6.90;;
29380;SDS011;16364;52.490;13.326;2022-08-21T01:42:05;8.60;;;7.83;;
29380;SDS011;16364;52.490;13.326;2022-08-21T01:44:31;9.03;;;6.80;;
29380;SDS011;16364;52.490;13.326;2022-08-21T01:46:57;6.50;;;5.90;;
29380;SDS011;16364;52.490;13.326;2022-08-21T01:49:23;6.73;;;6.10;;
29380;SDS011;16364;52.490;13.326;2022-08-21T01:51:48;6.30;;;5.80;;
29380;SDS011;16364;52.490;13.326;2022-08-21T01:54:13;5.97;;;5.47;;
29380;SDS011;16364;52.490;13.326;2022-08-21T01:56:40;12.07;;;5.77;;
29380;SDS011;16364;52.490;13.326;2022-08-21T01:59:06;5.70;;;5.30;;
29380;SDS011;16364;52.490;13.326;2022-08-21T02:01:31;8.13;;;5.30;;
29380;SDS011;16364;52.490;13.326;2022-08-21T02:03:56;5.30;;;4.37;;
29380;SDS011;16364;52.490;13.326;2022-08-21T02:06:22;5.33;;;4.93;;
29380;SDS011;16364;52.490;13.326;2022-08-21T02:08:47;10.60;;;5.37;;
29380;SDS011;16364;52.490;13.326;2022-08-21T02:11:12;4.23;;;3.60;;
29380;SDS011;16364;52.490;13.326;2022-08-21T02:13:37;4.67;;;3.77;;
29380;SDS011;16364;52.490;13.326;2022-08-21T02:16:03;4.70;;;4.20;;
29380;SDS011;16364;52.490;13.326;2022-08-21T02:18:28;4.60;;;3.90;;
29380;SDS011;16364;52.490;13.326;2022-08-21T02:20:54;4.67;;;4.27;;
29380;SDS011;16364;52.490;13.326;2022-08-21T02:23:19;4.80;;;4.03;;
29380;SDS011;16364;52.490;13.326;2022-08-21T02:25:45;4.73;;;3.80;;
29380;SDS011;16364;52.490;13.326;2022-08-21T02:28:11;8.83;;;4.50;;
29380;SDS011;16364;52.490;13.326;2022-08-21T02:30:38;3.90;;;3.70;;
29380;SDS011;16364;52.490;13.326;2022-08-21T02:33:04;8.17;;;3.83;;
29380;SDS011;16364;52.490;13.326;2022-08-21T02:35:30;4.47;;;4.07;;
29380;SDS011;16364;52.490;13.326;2022-08-21T02:37:56;4.70;;;4.30;;
29380;SDS011;16364;52.490;13.326;2022-08-21T02:40:23;3.73;;;3.40;;
29380;SDS011;16364;52.490;13.326;2022-08-21T02:42:49;4.53;;;3.80;;
29380;SDS011;16364;52.490;13.326;2022-08-21T02:45:15;5.73;;;4.63;;
29380;SDS011;16364;52.490;13.326;2022-08-21T02:47:50;5.00;;;4.03;;
29380;SDS011;16364;52.490;13.326;2022-08-21T02:50:20;4.57;;;4.17;;
29380;SDS011;16364;52.490;13.326;2022-08-21T02:52:46;11.13;;;4.57;;
29380;SDS011;16364;52.490;13.326;2022-08-21T02:55:11;5.33;;;3.73;;
29380;SDS011;16364;52.490;13.326;2022-08-21T02:57:36;4.00;;;3.60;;
29380;SDS011;16364;52.490;13.326;2022-08-21T03:00:02;4.90;;;3.93;;
29380;SDS011;16364;52.490;13.326;2022-08-21T03:02:28;3.57;;;3.27;;
29380;SDS011;16364;52.490;13.326;2022-08-21T03:04:53;5.50;;;3.43;;
29380;SDS011;16364;52.490;13.326;2022-08-21T03:07:18;5.27;;;3.33;;
29380;SDS011;16364;52.490;13.326;2022-08-21T03:09:43;4.63;;;3.73;;
29380;SDS011;16364;52.490;13.326;2022-08-21T03:12:09;3.93;;;3.17;;
29380;SDS011;16364;52.490;13.326;2022-08-21T03:14:34;3.47;;;3.17;;
29380;SDS011;16364;52.490;13.326;2022-08-21T03:16:59;4.60;;;3.50;;
29380;SDS011;16364;52.490;13.326;2022-08-21T03:19:24;9.67;;;3.30;;
29380;SDS011;16364;52.490;13.326;2022-08-21T03:21:49;4.27;;;2.90;;
29380;SDS011;16364;52.490;13.326;2022-08-21T03:24:15;3.77;;;3.03;;
29380;SDS011;16364;52.490;13.326;2022-08-21T03:26:40;5.83;;;3.50;;
29380;SDS011;16364;52.490;13.326;2022-08-21T03:29:05;3.30;;;2.73;;
29380;SDS011;16364;52.490;13.326;2022-08-21T03:31:32;4.77;;;2.90;;
29380;SDS011;16364;52.490;13.326;2022-08-21T03:33:57;3.73;;;2.87;;
29380;SDS011;16364;52.490;13.326;2022-08-21T03:36:23;9.80;;;3.30;;
29380;SDS011;16364;52.490;13.326;2022-08-21T03:38:48;3.10;;;2.73;;
29380;SDS011;16364;52.490;13.326;2022-08-21T03:41:14;4.53;;;3.77;;
29380;SDS011;16364;52.490;13.326;2022-08-21T03:43:39;3.53;;;3.23;;
29380;SDS011;16364;52.490;13.326;2022-08-21T03:46:05;3.17;;;2.60;;
29380;SDS011;16364;52.490;13.326;2022-08-21T03:48:30;3.53;;;3.23;;
29380;SDS011;16364;52.490;13.326;2022-08-21T03:50:55;4.20;;;2.93;;
29380;SDS011;16364;52.490;13.326;2022-08-21T03:53:21;3.30;;;3.03;;
29380;SDS011;16364;52.490;13.326;2022-08-21T03:55:47;3.83;;;3.40;;
29380;SDS011;16364;52.490;13.326;2022-08-21T03:58:14;3.53;;;3.20;;
29380;SDS011;16364;52.490;13.326;2022-08-21T04:00:39;7.90;;;3.00;;
29380;SDS011;16364;52.490;13.326;2022-08-21T04:03:04;6.20;;;3.20;;
29380;SDS011;16364;52.490;13.326;2022-08-21T04:05:31;4.43;;;2.60;;
29380;SDS011;16364;52.490;13.326;2022-08-21T04:07:58;4.33;;;2.73;;
29380;SDS011;16364;52.490;13.326;2022-08-21T04:10:24;5.07;;;2.83;;
29380;SDS011;16364;52.490;13.326;2022-08-21T04:12:50;3.70;;;2.80;;
29380;SDS011;16364;52.490;13.326;2022-08-21T04:15:15;3.20;;;2.70;;
29380;SDS011;16364;52.490;13.326;2022-08-21T04:17:41;3.00;;;2.40;;
29380;SDS011;16364;52.490;13.326;2022-08-21T04:20:06;8.00;;;3.37;;
29380;SDS011;16364;52.490;13.326;2022-08-21T04:22:31;3.30;;;2.70;;
29380;SDS011;16364;52.490;13.326;2022-08-21T04:24:56;3.37;;;2.40;;
29380;SDS011;16364;52.490;13.326;2022-08-21T04:27:22;2.53;;;2.33;;
29380;SDS011;16364;52.490;13.326;2022-08-21T04:29:47;4.63;;;2.80;;
29380;SDS011;16364;52.490;13.326;2022-08-21T04:32:12;5.17;;;2.20;;
29380;SDS011;16364;52.490;13.326;2022-08-21T04:34:37;3.57;;;2.30;;
29380;SDS011;16364;52.490;13.326;2022-08-21T04:37:03;4.70;;;2.37;;
29380;SDS011;16364;52.490;13.326;2022-08-21T04:39:28;6.90;;;2.90;;
29380;SDS011;16364;52.490;13.326;2022-08-21T04:41:53;3.57;;;3.10;;
29380;SDS011;16364;52.490;13.326;2022-08-21T04:44:19;6.63;;;2.80;;
29380;SDS011;16364;52.490;13.326;2022-08-21T04:46:44;5.00;;;2.90;;
29380;SDS011;16364;52.490;13.326;2022-08-21T04:49:09;7.87;;;2.20;;
29380;SDS011;16364;52.490;13.326;2022-08-21T04:51:35;3.30;;;2.40;;
29380;SDS011;16364;52.490;13.326;2022-08-21T04:56:35;3.40;;;2.00;;
29380;SDS011;16364;52.490;13.326;2022-08-21T04:59:02;3.77;;;2.40;;
29380;SDS011;16364;52.490;13.326;2022-08-21T05:01:29;4.60;;;2.67;;
29380;SDS011;16364;52.490;13.326;2022-08-21T05:03:56;5.97;;;2.53;;
29380;SDS011;16364;52.490;13.326;2022-08-21T05:06:22;6.53;;;2.00;;
29380;SDS011;16364;52.490;13.326;2022-08-21T05:08:49;5.40;;;2.50;;
29380;SDS011;16364;52.490;13.326;2022-08-21T05:11:14;4.33;;;2.53;;
29380;SDS011;16364;52.490;13.326;2022-08-21T05:13:39;5.10;;;2.10;;
29380;SDS011;16364;52.490;13.326;2022-08-21T05:16:06;2.83;;;2.20;;
29380;SDS011;16364;52.490;13.326;2022-08-21T05:18:31;3.00;;;2.63;;
29380;SDS011;16364;52.490;13.326;2022-08-21T05:20:56;6.30;;;2.30;;
29380;SDS011;16364;52.490;13.326;2022-08-21T05:23:22;5.03;;;2.20;;
29380;SDS011;16364;52.490;13.326;2022-08-21T05:25:47;4.40;;;2.50;;
29380;SDS011;16364;52.490;13.326;2022-08-21T05:28:12;7.47;;;2.47;;
29380;SDS011;16364;52.490;13.326;2022-08-21T05:30:37;3.03;;;2.40;;
29380;SDS011;16364;52.490;13.326;2022-08-21T05:33:04;6.13;;;2.43;;
29380;SDS011;16364;52.490;13.326;2022-08-21T05:35:31;2.60;;;2.40;;
29380;SDS011;16364;52.490;13.326;2022-08-21T05:37:57;2.60;;;2.40;;
29380;SDS011;16364;52.490;13.326;2022-08-21T05:40:22;3.37;;;1.97;;
29380;SDS011;16364;52.490;13.326;2022-08-21T05:42:47;2.83;;;1.97;;
29380;SDS011;16364;52.490;13.326;2022-08-21T05:45:12;3.00;;;2.10;;
29380;SDS011;16364;52.490;13.326;2022-08-21T05:47:38;3.50;;;2.10;;
29380;SDS011;16364;52.490;13.326;2022-08-21T05:50:04;8.70;;;3.80;;
29380;SDS011;16364;52.490;13.326;2022-08-21T05:52:29;2.73;;;1.80;;
29380;SDS011;16364;52.490;13.326;2022-08-21T05:54:55;6.70;;;2.20;;
29380;SDS011;16364;52.490;13.326;2022-08-21T05:57:20;2.43;;;2.23;;
29380;SDS011;16364;52.490;13.326;2022-08-21T05:59:46;3.47;;;2.47;;
29380;SDS011;16364;52.490;13.326;2022-08-21T06:02:11;2.83;;;1.90;;
29380;SDS011;16364;52.490;13.326;2022-08-21T06:04:37;2.57;;;2.37;;
29380;SDS011;16364;52.490;13.326;2022-08-21T06:07:04;5.83;;;2.50;;
29380;SDS011;16364;52.490;13.326;2022-08-21T06:09:30;5.40;;;2.00;;
29380;SDS011;16364;52.490;13.326;2022-08-21T06:11:55;2.80;;;2.33;;
29380;SDS011;16364;52.490;13.326;2022-08-21T06:14:20;5.20;;;2.40;;
29380;SDS011;16364;52.490;13.326;2022-08-21T06:16:45;6.60;;;3.00;;
29380;SDS011;16364;52.490;13.326;2022-08-21T06:19:10;7.43;;;2.20;;
29380;SDS011;16364;52.490;13.326;2022-08-21T06:21:36;5.40;;;2.07;;
29380;SDS011;16364;52.490;13.326;2022-08-21T06:24:01;2.53;;;2.00;;
29380;SDS011;16364;52.490;13.326;2022-08-21T06:26:27;6.00;;;2.50;;
29380;SDS011;16364;52.490;13.326;2022-08-21T06:28:53;3.80;;;2.00;;
29380;SDS011;16364;52.490;13.326;2022-08-21T06:31:19;5.17;;;2.37;;
29380;SDS011;16364;52.490;13.326;2022-08-21T06:33:45;5.10;;;2.03;;
29380;SDS011;16364;52.490;13.326;2022-08-21T06:36:10;3.33;;;2.20;;
29380;SDS011;16364;52.490;13.326;2022-08-21T06:38:36;3.93;;;1.80;;
29380;SDS011;16364;52.490;13.326;2022-08-21T06:41:01;4.17;;;2.47;;
29380;SDS011;16364;52.490;13.326;2022-08-21T06:43:27;3.43;;;1.87;;
29380;SDS011;16364;52.490;13.326;2022-08-21T06:45:52;2.87;;;2.00;;
29380;SDS011;16364;52.490;13.326;2022-08-21T06:48:17;4.40;;;2.27;;
29380;SDS011;16364;52.490;13.326;2022-08-21T06:50:43;10.83;;;2.10;;
29380;SDS011;16364;52.490;13.326;2022-08-21T06:53:10;2.90;;;2.37;;
29380;SDS011;16364;52.490;13.326;2022-08-21T06:55:35;2.70;;;1.90;;
29380;SDS011;16364;52.490;13.326;2022-08-21T06:58:01;5.03;;;2.07;;
29380;SDS011;16364;52.490;13.326;2022-08-21T07:00:26;6.57;;;2.30;;
29380;SDS011;16364;52.490;13.326;2022-08-21T07:02:51;4.03;;;2.10;;
29380;SDS011;16364;52.490;13.326;2022-08-21T07:05:17;2.43;;;1.83;;
29380;SDS011;16364;52.490;13.326;2022-08-21T07:07:42;5.13;;;2.17;;
29380;SDS011;16364;52.490;13.326;2022-08-21T07:10:08;2.00;;;1.57;;
29380;SDS011;16364;52.490;13.326;2022-08-21T07:12:33;9.30;;;2.53;;
29380;SDS011;16364;52.490;13.326;2022-08-21T07:14:58;3.83;;;2.10;;
29380;SDS011;16364;52.490;13.326;2022-08-21T07:17:23;2.50;;;2.23;;
29380;SDS011;16364;52.490;13.326;2022-08-21T07:19:49;3.73;;;1.80;;
29380;SDS011;16364;52.490;13.326;2022-08-21T07:22:16;2.53;;;2.00;;
29380;SDS011;16364;52.490;13.326;2022-08-21T07:24:43;2.83;;;1.80;;
29380;SDS011;16364;52.490;13.326;2022-08-21T07:27:08;3.60;;;1.80;;
29380;SDS011;16364;52.490;13.326;2022-08-21T07:29:33;2.40;;;1.90;;
29380;SDS011;16364;52.490;13.326;2022-08-21T07:31:58;4.47;;;1.77;;
29380;SDS011;16364;52.490;13.326;2022-08-21T07:34:23;3.83;;;1.60;;
29380;SDS011;16364;52.490;13.326;2022-08-21T07:36:48;3.43;;;1.77;;
29380;SDS011;16364;52.490;13.326;2022-08-21T07:39:14;4.60;;;1.90;;
29380;SDS011;16364;52.490;13.326;2022-08-21T07:41:39;2.30;;;1.63;;
29380;SDS011;16364;52.490;13.326;2022-08-21T07:44:04;3.13;;;1.60;;
29380;SDS011;16364;52.490;13.326;2022-08-21T07:46:29;2.80;;;1.70;;
29380;SDS011;16364;52.490;13.326;2022-08-21T07:48:55;5.07;;;1.80;;
29380;SDS011;16364;52.490;13.326;2022-08-21T07:51:21;3.30;;;1.50;;
29380;SDS011;16364;52.490;13.326;2022-08-21T07:53:49;3.17;;;1.97;;
29380;SDS011;16364;52.490;13.326;2022-08-21T07:56:15;4.57;;;1.57;;
29380;SDS011;16364;52.490;13.326;2022-08-21T07:58:40;8.77;;;1.90;;
29380;SDS011;16364;52.490;13.326;2022-08-21T08:01:06;3.10;;;2.00;;
29380;SDS011;16364;52.490;13.326;2022-08-21T08:03:31;2.67;;;1.67;;
29380;SDS011;16364;52.490;13.326;2022-08-21T08:05:56;3.80;;;1.63;;
29380;SDS011;16364;52.490;13.326;2022-08-21T08:08:21;2.60;;;1.73;;
29380;SDS011;16364;52.490;13.326;2022-08-21T08:10:47;4.03;;;1.70;;
29380;SDS011;16364;52.490;13.326;2022-08-21T08:13:14;2.37;;;1.50;;
29380;SDS011;16364;52.490;13.326;2022-08-21T08:15:39;3.70;;;1.70;;
29380;SDS011;16364;52.490;13.326;2022-08-21T08:18:05;4.63;;;2.00;;
29380;SDS011;16364;52.490;13.326;2022-08-21T08:20:30;2.30;;;1.73;;
29380;SDS011;16364;52.490;13.326;2022-08-21T08:22:55;4.30;;;1.80;;
29380;SDS011;16364;52.490;13.326;2022-08-21T08:25:21;4.30;;;1.77;;
29380;SDS011;16364;52.490;13.326;2022-08-21T08:27:47;5.67;;;1.60;;
29380;SDS011;16364;52.490;13.326;2022-08-21T08:30:13;6.67;;;2.00;;
29380;SDS011;16364;52.490;13.326;2022-08-21T08:32:39;3.07;;;1.90;;
29380;SDS011;16364;52.490;13.326;2022-08-21T08:35:05;7.30;;;2.07;;
29380;SDS011;16364;52.490;13.326;2022-08-21T08:37:31;2.80;;;1.90;;
29380;SDS011;16364;52.490;13.326;2022-08-21T08:39:57;3.30;;;1.60;;
29380;SDS011;16364;52.490;13.326;2022-08-21T08:42:28;3.30;;;1.50;;
29380;SDS011;16364;52.490;13.326;2022-08-21T08:45:02;3.13;;;1.70;;
29380;SDS011;16364;52.490;13.326;2022-08-21T08:47:27;2.13;;;1.53;;
29380;SDS011;16364;52.490;13.326;2022-08-21T08:52:43;3.03;;;1.50;;
29380;SDS011;16364;52.490;13.326;2022-08-21T08:55:21;3.23;;;1.63;;
29380;SDS011;16364;52.490;13.326;2022-08-21T08:57:48;4.23;;;1.90;;
29380;SDS011;16364;52.490;13.326;2022-08-21T09:00:15;3.60;;;2.10;;
29380;SDS011;16364;52.490;13.326;2022-08-21T09:02:42;6.80;;;1.80;;
29380;SDS011;16364;52.490;13.326;2022-08-21T09:05:08;4.77;;;1.60;;
29380;SDS011;16364;52.490;13.326;2022-08-21T09:10:29;3.20;;;1.83;;
29380;SDS011;16364;52.490;13.326;2022-08-21T09:25:42;3.60;;;2.00;;
29380;SDS011;16364;52.490;13.326;2022-08-21T09:28:10;2.50;;;1.57;;
29380;SDS011;16364;52.490;13.326;2022-08-21T09:30:37;2.83;;;1.90;;
29380;SDS011;16364;52.490;13.326;2022-08-21T09:33:04;5.53;;;2.03;;
29380;SDS011;16364;52.490;13.326;2022-08-21T09:35:29;4.27;;;1.67;;
29380;SDS011;16364;52.490;13.326;2022-08-21T09:37:56;2.50;;;1.67;;
29380;SDS011;16364;52.490;13.326;2022-08-21T09:40:26;5.33;;;2.67;;
29380;SDS011;16364;52.490;13.326;2022-08-21T09:42:56;9.20;;;2.07;;
29380;SDS011;16364;52.490;13.326;2022-08-21T09:45:22;3.43;;;1.80;;
29380;SDS011;16364;52.490;13.326;2022-08-21T09:47:47;2.23;;;1.60;;
29380;SDS011;16364;52.490;13.326;2022-08-21T09:50:14;3.43;;;1.60;;
29380;SDS011;16364;52.490;13.326;2022-08-21T09:52:45;3.70;;;1.80;;
29380;SDS011;16364;52.490;13.326;2022-08-21T09:55:15;4.57;;;2.23;;
29380;SDS011;16364;52.490;13.326;2022-08-21T09:58:00;2.60;;;1.80;;
29380;SDS011;16364;52.490;13.326;2022-08-21T10:00:28;4.93;;;1.83;;
29380;SDS011;16364;52.490;13.326;2022-08-21T10:02:55;4.60;;;2.10;;
29380;SDS011;16364;52.490;13.326;2022-08-21T10:05:31;4.77;;;1.80;;
29380;SDS011;16364;52.490;13.326;2022-08-21T10:07:57;2.90;;;1.57;;
29380;SDS011;16364;52.490;13.326;2022-08-21T10:10:26;2.97;;;1.50;;
29380;SDS011;16364;52.490;13.326;2022-08-21T10:15:40;2.90;;;1.47;;
29380;SDS011;16364;52.490;13.326;2022-08-21T10:18:13;2.90;;;1.50;;
29380;SDS011;16364;52.490;13.326;2022-08-21T10:20:46;2.53;;;1.60;;
29380;SDS011;16364;52.490;13.326;2022-08-21T10:24:16;3.37;;;1.60;;
29380;SDS011;16364;52.490;13.326;2022-08-21T10:28:38;2.95;;;1.98;;
29380;SDS011;16364;52.490;13.326;2022-08-21T10:36:14;2.50;;;1.37;;
29380;SDS011;16364;52.490;13.326;2022-08-21T10:41:24;4.03;;;1.17;;
29380;SDS011;16364;52.490;13.326;2022-08-21T10:47:23;2.50;;;1.20;;
29380;SDS011;16364;52.490;13.326;2022-08-21T10:54:52;3.23;;;1.13;;
29380;SDS011;16364;52.490;13.326;2022-08-21T10:59:50;1.50;;;0.90;;
29380;SDS011;16364;52.490;13.326;2022-08-21T11:02:20;1.40;;;1.03;;
29380;SDS011;16364;52.490;13.326;2022-08-21T11:04:52;1.10;;;0.80;;
29380;SDS011;16364;52.490;13.326;2022-08-21T11:07:24;1.80;;;1.10;;
29380;SDS011;16364;52.490;13.326;2022-08-21T11:09:51;2.30;;;1.20;;
29380;SDS011;16364;52.490;13.326;2022-08-21T11:12:24;1.40;;;1.20;;
29380;SDS011;16364;52.490;13.326;2022-08-21T11:14:55;1.40;;;1.20;;
29380;SDS011;16364;52.490;13.326;2022-08-21T11:17:32;1.27;;;0.90;;
29380;SDS011;16364;52.490;13.326;2022-08-21T11:22:35;1.53;;;1.20;;
29380;SDS011;16364;52.490;13.326;2022-08-21T11:25:06;1.60;;;0.97;;
29380;SDS011;16364;52.490;13.326;2022-08-21T11:29:58;2.20;;;1.20;;
29380;SDS011;16364;52.490;13.326;2022-08-21T11:45:35;2.30;;;1.37;;
29380;SDS011;16364;52.490;13.326;2022-08-21T11:50:36;3.90;;;1.10;;
29380;SDS011;16364;52.490;13.326;2022-08-21T11:55:30;1.63;;;1.13;;
29380;SDS011;16364;52.490;13.326;2022-08-21T11:58:02;2.53;;;1.00;;
29380;SDS011;16364;52.490;13.326;2022-08-21T12:00:37;1.70;;;1.23;;
29380;SDS011;16364;52.490;13.326;2022-08-21T12:03:08;2.37;;;1.20;;
29380;SDS011;16364;52.490;13.326;2022-08-21T12:05:41;1.40;;;1.10;;
29380;SDS011;16364;52.490;13.326;2022-08-21T12:08:11;1.80;;;1.17;;
29380;SDS011;16364;52.490;13.326;2022-08-21T12:10:38;2.37;;;1.13;;
29380;SDS011;16364;52.490;13.326;2022-08-21T12:13:08;2.90;;;1.10;;
29380;SDS011;16364;52.490;13.326;2022-08-21T12:15:34;3.83;;;1.37;;
29380;SDS011;16364;52.490;13.326;2022-08-21T12:20:32;3.30;;;1.03;;
29380;SDS011;16364;52.490;13.326;2022-08-21T12:25:36;3.97;;;1.27;;
29380;SDS011;16364;52.490;13.326;2022-08-21T12:28:02;1.30;;;1.00;;
29380;SDS011;16364;52.490;13.326;2022-08-21T12:33:00;1.37;;;0.90;;
29380;SDS011;16364;52.490;13.326;2022-08-21T12:35:27;1.27;;;0.87;;
29380;SDS011;16364;52.490;13.326;2022-08-21T12:37:57;1.47;;;1.07;;
29380;SDS011;16364;52.490;13.326;2022-08-21T12:40:28;2.33;;;1.00;;
29380;SDS011;16364;52.490;13.326;2022-08-21T12:42:55;2.70;;;1.23;;
29380;SDS011;16364;52.490;13.326;2022-08-21T12:45:32;1.90;;;1.03;;
29380;SDS011;16364;52.490;13.326;2022-08-21T12:48:06;1.47;;;0.90;;
29380;SDS011;16364;52.490;13.326;2022-08-21T12:50:36;1.70;;;1.10;;
29380;SDS011;16364;52.490;13.326;2022-08-21T12:53:04;1.53;;;1.10;;
29380;SDS011;16364;52.490;13.326;2022-08-21T12:55:32;2.13;;;1.20;;
29380;SDS011;16364;52.490;13.326;2022-08-21T12:57:57;1.53;;;1.03;;
29380;SDS011;16364;52.490;13.326;2022-08-21T13:00:23;2.27;;;1.37;;
29380;SDS011;16364;52.490;13.326;2022-08-21T13:02:49;1.70;;;1.50;;
29380;SDS011;16364;52.490;13.326;2022-08-21T13:05:27;4.70;;;1.30;;
29380;SDS011;16364;52.490;13.326;2022-08-21T13:07:52;2.03;;;1.20;;
29380;SDS011;16364;52.490;13.326;2022-08-21T13:12:43;6.03;;;1.23;;
29380;SDS011;16364;52.490;13.326;2022-08-21T13:15:09;2.73;;;1.30;;
29380;SDS011;16364;52.490;13.326;2022-08-21T13:17:35;1.77;;;1.40;;
29380;SDS011;16364;52.490;13.326;2022-08-21T13:20:35;2.10;;;1.40;;
29380;SDS011;16364;52.490;13.326;2022-08-21T13:22:53;3.63;;;1.40;;
29380;SDS011;16364;52.490;13.326;2022-08-21T13:25:19;3.60;;;1.43;;
29380;SDS011;16364;52.490;13.326;2022-08-21T13:27:55;5.77;;;1.80;;
29380;SDS011;16364;52.490;13.326;2022-08-21T13:30:21;2.87;;;1.47;;
29380;SDS011;16364;52.490;13.326;2022-08-21T13:32:48;1.63;;;1.20;;
29380;SDS011;16364;52.490;13.326;2022-08-21T13:37:41;2.13;;;1.10;;
29380;SDS011;16364;52.490;13.326;2022-08-21T13:40:07;2.93;;;1.70;;
29380;SDS011;16364;52.490;13.326;2022-08-21T13:42:34;3.27;;;1.67;;
29380;SDS011;16364;52.490;13.326;2022-08-21T13:44:59;3.67;;;1.93;;
29380;SDS011;16364;52.490;13.326;2022-08-21T13:47:24;1.70;;;1.60;;
29380;SDS011;16364;52.490;13.326;2022-08-21T13:49:51;1.83;;;1.63;;
29380;SDS011;16364;52.490;13.326;2022-08-21T13:52:22;3.80;;;1.67;;
29380;SDS011;16364;52.490;13.326;2022-08-21T13:54:57;1.80;;;1.40;;
29380;SDS011;16364;52.490;13.326;2022-08-21T13:57:31;2.60;;;1.50;;
29380;SDS011;16364;52.490;13.326;2022-08-21T14:02:41;3.70;;;1.60;;
29380;SDS011;16364;52.490;13.326;2022-08-21T14:05:06;2.20;;;1.47;;
29380;SDS011;16364;52.490;13.326;2022-08-21T14:07:39;2.23;;;1.50;;
29380;SDS011;16364;52.490;13.326;2022-08-21T14:10:16;4.67;;;1.33;;
29380;SDS011;16364;52.490;13.326;2022-08-21T14:12:43;2.20;;;1.33;;
29380;SDS011;16364;52.490;13.326;2022-08-21T14:15:13;2.50;;;1.40;;
29380;SDS011;16364;52.490;13.326;2022-08-21T14:17:39;2.03;;;1.50;;
29380;SDS011;16364;52.490;13.326;2022-08-21T14:20:06;2.17;;;1.27;;
29380;SDS011;16364;52.490;13.326;2022-08-21T14:25:05;1.87;;;1.40;;
29380;SDS011;16364;52.490;13.326;2022-08-21T14:27:31;2.63;;;1.50;;
29380;SDS011;16364;52.490;13.326;2022-08-21T14:29:57;2.57;;;1.47;;
29380;SDS011;16364;52.490;13.326;2022-08-21T14:32:25;2.40;;;1.70;;
29380;SDS011;16364;52.490;13.326;2022-08-21T14:34:52;2.10;;;1.70;;
29380;SDS011;16364;52.490;13.326;2022-08-21T14:37:17;5.43;;;1.90;;
29380;SDS011;16364;52.490;13.326;2022-08-21T14:39:42;2.93;;;1.40;;
29380;SDS011;16364;52.490;13.326;2022-08-21T14:42:07;2.43;;;1.60;;
29380;SDS011;16364;52.490;13.326;2022-08-21T14:44:33;5.07;;;1.80;;
29380;SDS011;16364;52.490;13.326;2022-08-21T14:46:58;2.00;;;1.33;;
29380;SDS011;16364;52.490;13.326;2022-08-21T14:49:24;1.93;;;1.70;;
29380;SDS011;16364;52.490;13.326;2022-08-21T14:51:51;6.20;;;1.93;;
29380;SDS011;16364;52.490;13.326;2022-08-21T14:54:21;2.77;;;1.67;;
29380;SDS011;16364;52.490;13.326;2022-08-21T14:56:46;2.43;;;1.43;;
29380;SDS011;16364;52.490;13.326;2022-08-21T14:59:12;1.60;;;1.23;;
29380;SDS011;16364;52.490;13.326;2022-08-21T15:01:37;2.70;;;1.53;;
29380;SDS011;16364;52.490;13.326;2022-08-21T15:04:03;4.93;;;1.50;;
29380;SDS011;16364;52.490;13.326;2022-08-21T15:06:28;2.93;;;1.90;;
29380;SDS011;16364;52.490;13.326;2022-08-21T15:08:53;4.23;;;1.70;;
29380;SDS011;16364;52.490;13.326;2022-08-21T15:11:19;4.73;;;1.90;;
29380;SDS011;16364;52.490;13.326;2022-08-21T15:13:44;4.07;;;1.77;;
29380;SDS011;16364;52.490;13.326;2022-08-21T15:16:10;4.87;;;1.50;;
29380;SDS011;16364;52.490;13.326;2022-08-21T15:18:36;4.40;;;2.00;;
29380;SDS011;16364;52.490;13.326;2022-08-21T15:21:01;2.77;;;1.60;;
29380;SDS011;16364;52.490;13.326;2022-08-21T15:23:26;2.13;;;1.70;;
29380;SDS011;16364;52.490;13.326;2022-08-21T15:25:52;4.10;;;1.93;;
29380;SDS011;16364;52.490;13.326;2022-08-21T15:28:17;1.90;;;1.60;;
29380;SDS011;16364;52.490;13.326;2022-08-21T15:30:44;2.83;;;1.90;;
29380;SDS011;16364;52.490;13.326;2022-08-21T15:33:10;1.90;;;1.67;;
29380;SDS011;16364;52.490;13.326;2022-08-21T15:35:35;2.03;;;1.60;;
29380;SDS011;16364;52.490;13.326;2022-08-21T15:38:01;3.23;;;1.50;;
29380;SDS011;16364;52.490;13.326;2022-08-21T15:40:26;3.23;;;1.80;;
29380;SDS011;16364;52.490;13.326;2022-08-21T15:42:53;2.73;;;1.50;;
29380;SDS011;16364;52.490;13.326;2022-08-21T15:45:20;3.73;;;2.00;;
29380;SDS011;16364;52.490;13.326;2022-08-21T15:47:46;2.27;;;1.60;;
29380;SDS011;16364;52.490;13.326;2022-08-21T15:50:13;3.53;;;1.93;;
29380;SDS011;16364;52.490;13.326;2022-08-21T15:52:38;4.07;;;2.00;;
29380;SDS011;16364;52.490;13.326;2022-08-21T15:55:04;4.03;;;2.03;;
29380;SDS011;16364;52.490;13.326;2022-08-21T15:57:30;2.20;;;1.83;;